Latest Weather Observations for Forbes

IDN60801

Issued at 11:35 pm EDT Friday 31 October 2014 (issued every 30 minutes, with the page automatically refreshed every 10 minutes)

About weather observations | Map of weather stations | Latest weather observations for NSW | Other Formats
Station Details ID: 065103 Name: FORBES AIRPORT AWS Lat: -33.36 Lon: 147.92 Height: 230.4 m
Data from the previous 72 hours. | See also: Recent months at Forbes
Date/Time
EDT
Temp
°C
App
Temp
°C
Dew
Point
Rel
Hum
%
Delta-T
°C
Wind Press
QNH
hPa
Press
MSL
hPa
Rain
since 9 am
mm
Dir
 
Spd
km/h
Gust
km/h
Spd
kts
Gust
kts
31/11:30pm 24.5 19.4 13.1 49 6.7 N 32 43 17 23 1007.3 1006.9 0.0
31/11:00pm 24.8 18.6 12.7 47 7.1 N 37 52 20 28 1007.5 1007.1 0.0
31/10:35pm 25.8 18.9 11.6 41 8.2 N 39 57 21 31 1007.6 1007.2 0.0
31/10:30pm 26.0 18.2 11.0 39 8.5 N 43 57 23 31 1007.4 1007.0 0.0
31/10:00pm 28.1 20.8 8.9 30 10.7 N 37 63 20 34 1006.9 1006.5 0.0
31/09:57pm 29.8 22.8 5.8 22 12.8 N 32 52 17 28 1006.8 1006.4 0.0
31/09:48pm 30.3 24.1 4.1 19 13.6 N 26 43 14 23 1006.5 1006.1 0.0
31/09:30pm 25.2 21.9 4.3 26 10.5 NNW 11 15 6 8 1006.2 1005.7 0.0
31/09:00pm 26.7 23.8 2.6 21 11.9 WNW 7 11 4 6 1005.8 1005.3 0.0
31/08:30pm 27.1 25.7 3.6 22 11.8 CALM 0 0 0 0 1005.5 1005.0 0.0
31/08:00pm 27.9 25.2 2.9 20 12.6 NNE 6 7 3 4 1005.2 1004.7 0.0
31/07:30pm 28.7 25.5 2.8 19 13.0 N 9 11 5 6 1005.1 1004.6 0.0
31/07:00pm 31.1 26.6 -0.5 13 15.3 NNW 13 15 7 8 1005.0 1004.5 0.0
31/06:30pm 32.7 27.3 -1.6 11 16.4 NNW 17 22 9 12 1005.0 1004.5 0.0
31/06:00pm 33.9 27.5 -2.0 10 17.3 NNW 22 32 12 17 1005.2 1004.7 0.0
31/05:30pm 34.3 27.9 -1.7 10 17.4 NW 22 33 12 18 1005.3 1004.8 0.0
31/05:00pm 34.3 27.5 -1.7 10 17.4 NNW 24 37 13 20 1005.6 1005.1 0.0
31/04:30pm 34.9 27.8 -1.2 10 17.7 NNW 26 41 14 22 1005.8 1005.3 0.0
31/04:00pm 34.5 27.0 -1.5 10 17.5 NW 28 39 15 21 1006.2 1005.7 0.0
31/03:30pm 35.4 28.0 -0.8 10 17.9 NNW 28 43 15 23 1006.6 1006.2 0.0
31/03:00pm 34.4 26.5 -1.6 10 17.5 NNW 30 48 16 26 1007.0 1006.6 0.0
31/02:38pm 35.2 27.4 -1.0 10 17.8 NNW 30 48 16 26 1007.3 1006.9 0.0
31/02:30pm 35.8 28.8 -0.5 10 18.1 NNW 26 39 14 21 1007.3 1006.9 0.0
31/02:00pm 35.0 28.3 -1.1 10 17.7 NNW 24 33 13 18 1008.0 1007.6 0.0
31/01:37pm 36.0 28.6 -0.4 10 18.2 N 28 46 15 25 1008.3 1007.9 0.0
31/01:30pm 35.0 29.1 -1.1 10 17.7 N 20 30 11 16 1008.5 1008.1 0.0
31/01:00pm 33.1 25.4 -2.6 10 16.9 N 28 39 15 21 1009.3 1008.8 0.0
31/12:42pm 33.6 26.2 -0.9 11 16.8 N 28 48 15 26 1009.7 1009.2 0.0
31/12:30pm 35.4 28.4 -0.8 10 17.9 N 26 41 14 22 1010.0 1009.5 0.0
31/12:08pm 33.9 25.6 -2.0 10 17.2 N 32 54 17 29 1010.3 1009.9 0.0
31/12:00pm 34.0 25.7 -1.9 10 17.3 N 32 44 17 24 1010.5 1010.1 0.0
31/11:35am 33.6 26.2 -0.9 11 16.8 NNW 28 50 15 27 1011.0 1010.6 0.0
31/11:30am 33.7 25.5 -0.8 11 16.8 NNW 32 43 17 23 1011.1 1010.7 0.0
31/11:00am 33.0 24.6 -1.4 11 16.6 NNW 33 41 18 22 1011.4 1011.0 0.0
31/10:30am 32.4 25.4 -0.6 12 16.0 NNW 26 37 14 20 1011.8 1011.4 0.0
31/10:00am 31.4 24.8 -0.3 13 15.4 N 24 32 13 17 1012.2 1011.8 0.0
31/09:30am 29.6 24.6 1.1 16 14.0 N 17 22 9 12 1012.5 1012.1 0.0
31/09:00am 26.8 22.9 3.3 22 11.8 NNE 13 17 7 9 1012.8 1012.4 0.0
31/08:30am 24.0 20.7 4.4 28 9.8 N 11 15 6 8 1013.0 1012.6 0.0
31/08:00am 21.3 18.2 3.5 31 8.6 NNE 9 13 5 7 1012.8 1012.4 0.0
31/07:30am 18.0 15.8 6.2 46 5.9 E 7 9 4 5 1012.7 1012.3 0.0
31/07:00am 13.0 11.9 7.0 67 2.9 ENE 2 6 1 3 1012.5 1012.1 0.0
31/06:30am 11.3 8.6 5.8 69 2.6 ENE 9 11 5 6 1012.0 1011.6 0.0
31/06:00am 10.3 9.3 5.7 73 2.1 CALM 0 0 0 0 1011.7 1011.3 0.0
31/05:30am 10.1 9.1 5.5 73 2.1 CALM 0 0 0 0 1011.4 1011.0 0.0
31/05:00am 10.6 9.5 4.9 68 2.6 CALM 0 0 0 0 1010.9 1010.5 0.0
31/04:30am 11.5 9.7 5.2 65 2.9 ESE 4 7 2 4 1010.8 1010.4 0.0
31/04:00am 12.7 10.1 6.3 65 3.1 ENE 9 11 5 6 1011.1 1010.7 0.0
31/03:30am 12.5 10.2 5.9 64 3.1 ENE 7 11 4 6 1011.2 1010.8 0.0
31/03:00am 13.2 12.3 5.9 61 3.5 CALM 0 0 0 0 1011.7 1011.3 0.0
31/02:30am 12.9 12.1 6.5 65 3.1 CALM 0 0 0 0 1011.9 1011.5 0.0
31/02:00am 13.5 12.2 6.1 61 3.6 ENE 2 6 1 3 1012.3 1011.9 0.0
31/01:30am 14.9 12.2 5.7 54 4.4 NNE 9 43 5 23 1012.6 1012.2 0.0
31/01:00am 13.5 11.0 6.4 62 3.4 NNE 9 9 5 5 1012.9 1012.5 0.0
31/12:30am 13.5 11.8 6.1 61 3.6 N 4 13 2 7 1013.1 1012.7 0.0
31/12:00am 15.5 14.7 6.5 55 4.4 N 0 0 0 0 1012.9 1012.5 0.0
 
Date/Time
EDT
Temp
°C
App
Temp
°C
Dew
Point
Rel
Hum
%
Delta-T
°C
Wind Press
QNH
hPa
Press
MSL
hPa
Rain
since 9 am
mm
Dir
 
Spd
km/h
Gust
km/h
Spd
kts
Gust
kts
30/11:30pm 15.0 12.4 6.3 56 4.3 NNE 9 13 5 7 1013.0 1012.6 0.0
30/11:00pm 15.4 13.2 6.4 55 4.4 NNE 7 9 4 5 1013.0 1012.6 0.0
30/10:30pm 16.2 14.2 6.1 51 5.0 NE 6 9 3 5 1013.0 1012.6 0.0
30/10:00pm 18.2 16.0 5.1 42 6.4 ESE 6 7 3 4 1012.8 1012.4 0.0
30/09:30pm 19.7 17.2 4.6 37 7.4 SSE 7 20 4 11 1012.8 1012.4 0.0
30/09:00pm 20.6 18.3 5.0 36 7.7 NNE 6 7 3 4 1012.6 1012.2 0.0
30/08:30pm 22.0 20.8 4.6 32 8.6 CALM 0 0 0 0 1012.4 1012.0 0.0
30/08:00pm 23.6 22.2 3.5 27 9.9 CALM 0 0 0 0 1012.2 1011.8 0.0
30/07:30pm 26.3 23.6 2.9 22 11.6 WSW 6 7 3 4 1012.0 1011.6 0.0
30/07:00pm 29.4 26.0 1.8 17 13.7 WSW 9 13 5 7 1011.8 1011.4 0.0
30/06:30pm 30.9 26.5 0.3 14 14.9 WSW 13 20 7 11 1011.7 1011.3 0.0
30/06:00pm 31.5 27.3 1.8 15 14.9 SW 13 20 7 11 1011.7 1011.3 0.0
30/05:30pm 31.6 26.5 0.9 14 15.2 WSW 17 24 9 13 1011.7 1011.3 0.0
30/05:00pm 32.0 25.9 0.2 13 15.6 WSW 22 32 12 17 1011.8 1011.4 0.0
30/04:30pm 31.9 26.5 1.1 14 15.3 SW 19 33 10 18 1011.9 1011.5 0.0
30/04:00pm 31.1 26.9 1.4 15 14.8 WSW 13 22 7 12 1012.1 1011.7 0.0
30/03:30pm 31.0 27.5 1.4 15 14.7 S 9 17 5 9 1012.3 1011.9 0.0
30/03:00pm 31.0 25.1 1.4 15 14.7 WSW 22 30 12 16 1012.9 1012.5 0.0
30/02:30pm 31.0 24.9 0.4 14 15.0 SW 22 32 12 17 1013.5 1013.0 0.0
30/02:00pm 30.2 26.4 1.6 16 14.2 SW 11 19 6 10 1014.0 1013.6 0.0
30/01:30pm 29.8 25.2 1.3 16 14.0 WSW 15 22 8 12 1014.3 1013.9 0.0
30/01:00pm 29.3 23.7 0.9 16 13.8 SW 20 32 11 17 1014.6 1014.2 0.0
30/12:30pm 28.5 25.0 3.4 20 12.7 SW 11 17 6 9 1015.0 1014.6 0.0
30/12:00pm 28.5 24.5 2.7 19 12.9 WSW 13 22 7 12 1015.4 1015.0 0.0
30/11:30am 27.6 23.6 2.6 20 12.4 WNW 13 24 7 13 1015.6 1015.2 0.0
30/11:00am 26.8 23.4 4.0 23 11.5 WNW 11 22 6 12 1016.1 1015.7 0.0
30/10:30am 26.4 24.1 4.8 25 11.1 NW 6 15 3 8 1016.3 1015.9 0.0
30/10:00am 24.3 21.9 5.1 29 9.8 N 7 11 4 6 1016.5 1016.1 0.0
30/09:30am 21.6 20.8 6.3 37 7.8 CALM 0 0 0 0 1016.5 1016.1 0.0
30/09:00am 20.1 19.0 6.8 42 6.8 N 2 6 1 3 1016.6 1016.2 0.0
30/08:30am 18.4 17.3 6.9 47 5.8 NNE 2 7 1 4 1016.3 1015.9 0.0
30/08:00am 15.7 14.6 7.0 56 4.3 ENE 2 6 1 3 1016.0 1015.6 0.0
30/07:30am 14.0 11.8 6.4 60 3.7 ENE 7 9 4 5 1016.0 1015.6 0.0
30/07:00am 11.9 10.0 6.8 71 2.5 E 6 7 3 4 1016.0 1015.6 0.0
30/06:30am 9.3 7.2 5.7 78 1.7 ENE 6 7 3 4 1015.6 1015.2 0.0
30/06:00am 9.4 6.7 5.6 77 1.8 NE 9 9 5 5 1015.3 1014.9 0.0
30/05:30am 8.8 6.5 5.7 81 1.4 NNE 7 9 4 5 1015.4 1015.0 0.0
30/05:00am 8.6 5.8 5.2 79 1.5 N 9 11 5 6 1015.3 1014.9 0.0
30/04:30am 10.0 7.3 5.8 75 2.0 NNE 9 11 5 6 1015.1 1014.7 0.0
30/04:00am 10.1 7.9 5.5 73 2.1 NE 6 7 3 4 1015.0 1014.6 0.0
30/03:30am 10.4 8.7 6.0 74 2.1 NE 4 7 2 4 1015.2 1014.8 0.0
30/03:00am 10.7 8.8 6.5 75 2.0 NE 6 7 3 4 1015.2 1014.8 0.0
30/02:30am 10.3 8.0 5.9 74 2.1 NNE 7 7 4 4 1015.2 1014.8 0.0
30/02:00am 11.3 10.5 6.4 72 2.3 CALM 0 0 0 0 1015.3 1014.9 0.0
30/01:30am 11.6 10.8 6.5 71 2.4 CALM 0 0 0 0 1015.6 1015.2 0.0
30/01:00am 12.8 12.0 6.6 66 3.0 CALM 0 0 0 0 1015.8 1015.4 0.0
30/12:30am 12.8 12.1 7.0 68 2.8 CALM 0 0 0 0 1016.0 1015.6 0.0
30/12:00am 13.2 12.4 6.5 64 3.2 CALM 0 0 0 0 1016.2 1015.8 0.0
 
Date/Time
EDT
Temp
°C
App
Temp
°C
Dew
Point
Rel
Hum
%
Delta-T
°C
Wind Press
QNH
hPa
Press
MSL
hPa
Rain
since 9 am
mm
Dir
 
Spd
km/h
Gust
km/h
Spd
kts
Gust
kts
29/11:30pm 13.0 12.2 6.4 64 3.2 CALM 0 0 0 0 1016.1 1015.7 0.0
29/11:00pm 14.4 13.6 6.5 59 3.9 CALM 0 0 0 0 1016.0 1015.6 0.0
29/10:30pm 14.8 14.0 6.6 58 4.0 CALM 0 0 0 0 1015.9 1015.5 0.0
29/10:00pm 16.1 15.4 6.8 54 4.6 CALM 0 0 0 0 1015.8 1015.4 0.0
29/09:30pm 16.4 15.5 6.2 51 5.0 CALM 0 0 0 0 1015.6 1015.2 0.0
29/09:00pm 17.3 16.4 6.2 48 5.5 CALM 0 0 0 0 1015.3 1014.9 0.0
29/08:30pm 18.5 17.2 4.3 39 6.8 CALM 0 0 0 0 1015.1 1014.7 0.0
29/08:00pm 21.0 19.5 5.0 35 7.9 S 2 6 1 3 1015.0 1014.6 0.0
29/07:30pm 23.8 21.2 4.2 28 9.8 SSW 7 9 4 5 1014.8 1014.4 0.0
29/07:00pm 26.0 23.0 3.9 24 11.1 SW 9 13 5 7 1014.7 1014.3 0.0
29/06:30pm 27.0 23.5 3.5 22 11.8 WSW 11 17 6 9 1014.7 1014.3 0.0
29/06:00pm 27.6 24.2 4.0 22 12.0 SSW 11 19 6 10 1014.4 1014.0 0.0
29/05:30pm 27.4 23.5 3.2 21 12.1 SSW 13 20 7 11 1014.5 1014.1 0.0
29/05:00pm 27.6 23.3 3.3 21 12.2 W 15 24 8 13 1014.5 1014.1 0.0
29/04:30pm 28.0 23.9 4.3 22 12.2 WSW 15 24 8 13 1014.7 1014.3 0.0
29/04:00pm 27.6 24.2 4.0 22 12.0 W 11 26 6 14 1014.9 1014.5 0.0
29/03:30pm 26.7 23.3 3.9 23 11.5 NW 11 22 6 12 1015.2 1014.8 0.0
29/03:00pm 26.8 21.8 4.6 24 11.4 SW 20 28 11 15 1015.7 1015.3 0.0
29/02:30pm 26.7 23.0 4.5 24 11.3 W 13 24 7 13 1016.0 1015.6 0.0
29/02:00pm 26.1 21.6 4.0 24 11.1 SW 17 30 9 16 1016.4 1016.0 0.0
29/01:30pm 25.4 21.3 4.5 26 10.6 WSW 15 30 8 16 1016.7 1016.3 0.0
29/01:00pm 24.7 20.1 3.9 26 10.4 SW 17 26 9 14 1017.0 1016.6 0.0
29/12:30pm 24.1 19.3 4.5 28 9.8 WSW 19 24 10 13 1017.5 1017.1 0.0
29/12:00pm 23.4 18.6 4.9 30 9.3 SSW 19 24 10 13 1018.0 1017.6 0.0
29/11:30am 22.8 19.2 4.8 31 9.0 S 13 30 7 16 1018.4 1018.0 0.0
29/11:00am 22.6 18.7 5.5 33 8.6 S 15 24 8 13 1018.7 1018.3 0.0
29/10:30am 21.8 18.1 6.5 37 7.9 S 15 24 8 13 1019.0 1018.6 0.0
29/10:00am 20.8 16.7 6.4 39 7.3 SW 17 28 9 15 1019.1 1018.7 0.0
29/09:30am 19.8 16.5 6.2 41 6.9 SW 13 22 7 12 1019.1 1018.7 0.0
29/09:00am 18.5 16.0 6.7 46 5.9 WSW 9 13 5 7 1019.0 1018.6 0.0
29/08:30am 16.8 13.9 6.6 51 5.1 WSW 11 15 6 8 1018.8 1018.4 0.0
29/08:00am 15.1 13.2 6.7 57 4.1 W 6 9 3 5 1018.7 1018.3 0.0
29/07:30am 12.0 11.2 6.7 70 2.6 CALM 0 0 0 0 1018.5 1018.1 0.0
29/07:00am 9.8 8.8 5.8 76 1.9 CALM 0 0 0 0 1018.3 1017.9 0.0
29/06:30am 8.2 7.1 5.3 82 1.3 CALM 0 0 0 0 1018.0 1017.6 0.0
29/06:00am 7.8 5.5 4.7 81 1.4 NE 6 7 3 4 1017.6 1017.3 0.0
29/05:30am 7.6 4.3 4.7 82 1.3 NNE 11 11 6 6 1017.3 1016.9 0.0
29/05:00am 8.6 6.2 5.2 79 1.5 NNE 7 7 4 4 1016.9 1016.5 0.0
29/04:30am 8.5 6.1 5.1 79 1.5 N 7 9 4 5 1016.7 1016.3 0.0
29/04:00am 8.4 6.2 5.3 81 1.4 N 6 7 3 4 1016.5 1016.1 0.0
29/03:30am 8.8 7.7 5.2 78 1.6 CALM 0 0 0 0 1016.3 1015.9 0.0
29/03:00am 9.8 8.8 5.4 74 2.0 CALM 0 0 0 0 1016.1 1015.7 0.0
29/02:30am 10.1 9.1 5.7 74 2.0 CALM 0 0 0 0 1016.1 1015.7 0.0
29/02:00am 10.3 9.3 5.5 72 2.2 CALM 0 0 0 0 1016.1 1015.7 0.0
29/01:30am 12.2 10.3 5.1 62 3.3 SSW 4 6 2 3 1016.3 1015.9 0.0
29/01:00am 12.7 10.5 5.1 60 3.6 SSW 6 7 3 4 1016.5 1016.1 0.0
29/12:30am 13.4 10.6 5.1 57 3.9 SSW 9 9 5 5 1016.5 1016.1 0.0
29/12:00am 14.5 12.1 5.3 54 4.4 SSW 7 11 4 6 1016.5 1016.1 0.0

Other Formats:

Comma delimited format used in spreadsheet applications
http://www.bom.gov.au/fwo/IDN60801/IDN60801.94715.axf

JavaScript Object Notation format (JSON) in row-major order
http://www.bom.gov.au/fwo/IDN60801/IDN60801.94715.json